Time;durP1;ratioP1;P1;durP2;ratioP2;P2;SDS_P1;SDS_P2;PMS_P1;PMS_P2;Temp;Humidity;BMP_temperature;BMP_pressure;BME280_temperature;BME280_humidity;BME280_pressure;Samples;Min_cycle;Max_cycle;Signal;HPM_P1;HPM_P2
2022/07/06 00:00:18;;;;;;;5.70;5.30;;;;;;;15.87;100.00;99561.97;5085486;28;20330;-75
2022/07/06 00:02:44;;;;;;;5.50;5.07;;;;;;;15.81;100.00;99561.13;5087841;28;20234;-75
2022/07/06 00:05:11;;;;;;;5.40;5.10;;;;;;;15.74;100.00;99568.59;5089959;28;20652;-76
2022/07/06 00:07:38;;;;;;;5.93;5.43;;;;;;;15.72;100.00;99567.25;5086117;28;20212;-76
2022/07/06 00:10:05;;;;;;;6.00;5.20;;;;;;;15.66;100.00;99581.75;5085094;28;20227;-75
2022/07/06 00:12:31;;;;;;;5.93;5.47;;;;;;;15.61;100.00;99579.00;5091739;28;20224;-76
2022/07/06 00:14:58;;;;;;;5.47;5.07;;;;;;;15.58;100.00;99593.03;5086429;28;20318;-76
2022/07/06 00:17:25;;;;;;;6.00;5.60;;;;;;;15.56;100.00;99592.44;5096363;28;20227;-75
2022/07/06 00:19:51;;;;;;;5.80;5.30;;;;;;;15.46;100.00;99595.81;5091850;28;20235;-77
2022/07/06 00:22:18;;;;;;;5.87;5.47;;;;;;;15.42;100.00;99594.69;5088452;28;20242;-75
2022/07/06 00:24:45;;;;;;;5.90;5.50;;;;;;;15.39;100.00;99598.72;5093828;28;20680;-77
2022/07/06 00:27:11;;;;;;;5.90;5.50;;;;;;;15.38;100.00;99598.97;5087620;28;20319;-75
2022/07/06 00:29:43;;;;;;;6.07;5.67;;;;;;;15.35;100.00;99602.97;5095677;28;20231;-75
2022/07/06 00:32:11;;;;;;;6.00;5.43;;;;;;;15.31;100.00;99606.41;5090944;28;20286;-75
2022/07/06 00:34:39;;;;;;;6.10;5.50;;;;;;;15.27;100.00;99611.50;5092076;28;20269;-75
2022/07/06 00:37:06;;;;;;;6.20;5.80;;;;;;;15.23;100.00;99614.94;5092062;28;20232;-75
2022/07/06 00:39:33;;;;;;;6.10;5.60;;;;;;;15.19;100.00;99605.72;5087285;28;20688;-75
2022/07/06 00:42:00;;;;;;;6.87;6.27;;;;;;;15.14;100.00;99611.88;5068129;28;20297;-77
2022/07/06 00:44:28;;;;;;;6.60;5.93;;;;;;;15.11;100.00;99614.25;5080926;28;20314;-75
2022/07/06 00:46:55;;;;;;;6.50;6.00;;;;;;;15.07;100.00;99615.81;5073834;28;20243;-75
2022/07/06 00:52:07;;;;;;;6.30;5.90;;;;;;;15.06;100.00;99623.09;5089815;28;20234;-76
2022/07/06 00:54:34;;;;;;;7.10;6.40;;;;;;;15.05;100.00;99618.75;5071532;28;20291;-75
2022/07/06 00:57:01;;;;;;;6.20;5.80;;;;;;;15.00;100.00;99621.38;5069198;28;20324;-75
2022/07/06 00:59:28;;;;;;;6.50;6.10;;;;;;;14.97;100.00;99620.03;5090483;28;20225;-75
2022/07/06 01:01:54;;;;;;;7.10;6.70;;;;;;;14.98;100.00;99612.72;5090369;28;20236;-75
2022/07/06 01:04:21;;;;;;;7.70;7.10;;;;;;;14.96;100.00;99609.47;5081010;28;20236;-75
2022/07/06 01:06:48;;;;;;;7.60;7.07;;;;;;;14.99;100.00;99614.34;5078694;28;20285;-75
2022/07/06 01:09:16;;;;;;;7.70;7.10;;;;;;;15.01;100.00;99616.81;5091752;28;20319;-76
2022/07/06 01:11:43;;;;;;;8.37;7.77;;;;;;;15.03;100.00;99610.09;5083427;28;20225;-75
2022/07/06 01:14:11;;;;;;;8.10;7.50;;;;;;;15.05;100.00;99615.25;5070668;28;20239;-75
2022/07/06 01:16:38;;;;;;;7.70;7.20;;;;;;;15.17;100.00;99615.94;5081950;28;20789;-77
2022/07/06 01:19:05;;;;;;;8.30;7.60;;;;;;;15.36;100.00;99610.00;5093711;28;20228;-77
2022/07/06 01:21:31;;;;;;;8.03;7.43;;;;;;;15.40;100.00;99602.22;5093798;28;20314;-77
2022/07/06 01:23:58;;;;;;;8.33;7.63;;;;;;;15.43;100.00;99607.13;5081470;28;20259;-76
2022/07/06 01:26:25;;;;;;;8.13;7.53;;;;;;;15.48;100.00;99604.47;5081138;28;20240;-75
2022/07/06 01:28:52;;;;;;;7.57;6.97;;;;;;;15.47;100.00;99599.31;5081700;28;20298;-76
2022/07/06 01:31:19;;;;;;;8.00;7.50;;;;;;;15.47;100.00;99596.63;5073424;28;20655;-77
2022/07/06 01:33:48;;;;;;;7.67;7.17;;;;;;;15.45;100.00;99596.88;5088900;28;20277;-77
2022/07/06 01:36:15;;;;;;;7.30;6.70;;;;;;;15.45;100.00;99586.06;5056096;28;20256;-78
2022/07/06 01:38:54;;;;;;;7.93;7.40;;;;;;;15.48;100.00;99592.88;5085156;28;20232;-77
2022/07/06 01:41:20;;;;;;;7.73;7.03;;;;;;;15.49;100.00;99583.69;5072416;28;20265;-77
2022/07/06 01:43:47;;;;;;;7.60;7.00;;;;;;;15.51;100.00;99592.38;5094746;28;20597;-77
2022/07/06 01:46:15;;;;;;;7.97;7.40;;;;;;;15.50;100.00;99590.72;5054416;28;20228;-76
2022/07/06 01:48:42;;;;;;;7.77;7.17;;;;;;;15.56;100.00;99587.84;5062397;28;20228;-76
2022/07/06 01:51:09;;;;;;;7.80;7.20;;;;;;;15.57;100.00;99585.97;5049249;28;20230;-76
2022/07/06 01:53:38;;;;;;;8.00;7.20;;;;;;;15.55;100.00;99580.81;5051783;28;20305;-76
2022/07/06 01:56:06;;;;;;;7.63;7.03;;;;;;;15.56;100.00;99576.25;5041815;28;20300;-77
2022/07/06 01:58:33;;;;;;;7.97;7.37;;;;;;;15.60;100.00;99586.28;5042110;28;20241;-76
2022/07/06 02:01:00;;;;;;;7.57;7.00;;;;;;;15.58;100.00;99587.63;5049946;28;20312;-77
2022/07/06 02:03:26;;;;;;;7.97;7.13;;;;;;;15.57;100.00;99594.09;5041749;28;20252;-77
2022/07/06 02:05:53;;;;;;;7.60;7.10;;;;;;;15.56;100.00;99589.75;5041185;28;20238;-75
2022/07/06 02:08:20;;;;;;;7.63;6.97;;;;;;;15.57;100.00;99596.78;5038795;28;20280;-76
2022/07/06 02:10:47;;;;;;;7.50;6.90;;;;;;;15.57;100.00;99605.69;5042728;28;20230;-77
2022/07/06 02:13:15;;;;;;;7.40;6.70;;;;;;;15.57;100.00;99605.69;5054808;28;20238;-79
2022/07/06 02:15:41;;;;;;;7.50;7.00;;;;;;;15.58;100.00;99606.53;5037320;28;20329;-76
2022/07/06 02:18:08;;;;;;;7.53;7.03;;;;;;;15.58;100.00;99618.13;5056864;28;20230;-77
2022/07/06 02:20:35;;;;;;;7.37;6.80;;;;;;;15.57;100.00;99621.91;5041406;28;20249;-76
2022/07/06 02:23:01;;;;;;;7.17;6.67;;;;;;;15.58;100.00;99620.84;5037917;28;20762;-76
2022/07/06 02:25:28;;;;;;;7.23;6.73;;;;;;;15.56;100.00;99622.16;5050364;28;20264;-77
2022/07/06 02:27:55;;;;;;;7.63;7.13;;;;;;;15.54;100.00;99627.00;5046701;28;20731;-76
2022/07/06 02:30:23;;;;;;;7.83;7.23;;;;;;;15.54;100.00;99624.28;5038429;28;20313;-76
2022/07/06 02:32:50;;;;;;;8.27;7.67;;;;;;;15.58;100.00;99630.81;5042729;28;20328;-76
2022/07/06 02:35:16;;;;;;;7.80;7.30;;;;;;;15.57;100.00;99626.47;5043137;28;20669;-78
2022/07/06 02:37:43;;;;;;;7.87;7.37;;;;;;;15.54;100.00;99641.28;5053595;28;20241;-76
2022/07/06 02:40:10;;;;;;;8.00;7.40;;;;;;;15.52;100.00;99640.75;5043639;28;20230;-76
2022/07/06 02:42:37;;;;;;;8.20;7.70;;;;;;;15.47;100.00;99631.72;5037308;28;20308;-76
2022/07/06 02:45:05;;;;;;;8.47;7.80;;;;;;;15.44;100.00;99630.34;5054499;28;20248;-76
2022/07/06 02:47:33;;;;;;;8.37;7.63;;;;;;;15.38;100.00;99628.66;5044186;28;20254;-77
2022/07/06 02:49:59;;;;;;;8.50;7.90;;;;;;;15.39;100.00;99635.69;5074814;28;20316;-76
2022/07/06 02:52:26;;;;;;;8.17;7.47;;;;;;;15.33;100.00;99633.97;5039673;28;20231;-77
2022/07/06 02:54:54;;;;;;;8.33;7.70;;;;;;;15.25;100.00;99631.72;5050545;28;20237;-76
2022/07/06 02:57:20;;;;;;;8.13;7.43;;;;;;;15.15;100.00;99628.88;5055619;28;20243;-76
2022/07/06 02:59:49;;;;;;;8.70;8.00;;;;;;;15.07;100.00;99632.81;5052697;28;20221;-75
2022/07/06 03:02:17;;;;;;;9.20;8.47;;;;;;;15.03;100.00;99631.69;5051973;28;20237;-76
2022/07/06 03:04:44;;;;;;;8.60;8.00;;;;;;;15.04;100.00;99638.72;5057628;28;20243;-74
2022/07/06 03:07:12;;;;;;;8.33;7.77;;;;;;;14.94;100.00;99635.84;5049442;28;20288;-75
2022/07/06 03:09:38;;;;;;;8.73;7.93;;;;;;;14.93;100.00;99645.03;5052352;28;20713;-76
2022/07/06 03:12:05;;;;;;;8.73;8.10;;;;;;;14.89;100.00;99647.41;5084780;28;20744;-74
2022/07/06 03:14:34;;;;;;;7.80;7.30;;;;;;;14.87;100.00;99649.53;5055287;28;20239;-75
2022/07/06 03:17:00;;;;;;;8.80;8.00;;;;;;;14.86;100.00;99641.69;5053734;28;20702;-75
2022/07/06 03:19:27;;;;;;;9.20;8.50;;;;;;;14.84;100.00;99643.81;5052245;28;20233;-75
2022/07/06 03:21:54;;;;;;;8.80;8.13;;;;;;;14.82;100.00;99638.66;5052910;28;20244;-75
2022/07/06 03:24:21;;;;;;;9.40;8.60;;;;;;;14.83;100.00;99639.50;5083895;28;21025;-75
2022/07/06 03:26:48;;;;;;;9.47;8.67;;;;;;;14.83;100.00;99628.69;5048527;28;20324;-75
2022/07/06 03:29:14;;;;;;;8.60;8.00;;;;;;;14.84;100.00;99616.81;5044818;28;20238;-76
2022/07/06 03:31:41;;;;;;;9.00;8.30;;;;;;;14.85;100.00;99618.47;5052399;28;20248;-75
2022/07/06 03:34:08;;;;;;;9.37;8.67;;;;;;;14.86;100.00;99623.63;5041944;28;20690;-74
2022/07/06 03:36:35;;;;;;;9.07;8.37;;;;;;;14.89;100.00;99623.13;5043114;28;20225;-76
2022/07/06 03:39:05;;;;;;;9.17;8.43;;;;;;;14.91;100.00;99620.19;5053560;28;20229;-75
2022/07/06 03:41:34;;;;;;;8.83;8.23;;;;;;;14.90;100.00;99621.25;5049295;28;20602;-76
2022/07/06 03:44:01;;;;;;;9.33;8.53;;;;;;;14.95;100.00;99618.63;5041573;28;20237;-74
2022/07/06 03:46:29;;;;;;;9.03;8.27;;;;;;;14.94;100.00;99614.28;5050584;28;20229;-76
2022/07/06 03:48:56;;;;;;;9.07;8.37;;;;;;;14.94;100.00;99623.19;5047520;28;20225;-76
2022/07/06 03:51:23;;;;;;;9.73;8.97;;;;;;;14.95;100.00;99613.22;5052147;28;20607;-76
2022/07/06 03:53:50;;;;;;;9.37;8.67;;;;;;;15.00;100.00;99616.00;5051715;28;20653;-75
2022/07/06 03:56:29;;;;;;;9.77;9.07;;;;;;;15.04;100.00;99610.91;5044223;28;20256;-77
2022/07/06 03:59:02;;;;;;;9.30;8.60;;;;;;;15.14;100.00;99611.88;5047678;28;20233;-77
2022/07/06 04:01:32;;;;;;;10.83;9.13;;;;;;;15.24;100.00;99616.59;5046515;28;20741;-77
2022/07/06 04:04:00;;;;;;;9.67;8.87;;;;;;;15.65;100.00;99618.75;5047810;28;20225;-75
2022/07/06 04:06:30;;;;;;;9.80;9.17;;;;;;;16.86;100.00;99619.06;5056061;28;20315;-75
2022/07/06 04:08:57;;;;;;;8.77;7.97;;;;;;;18.56;100.00;99618.31;5046220;28;20646;-75
2022/07/06 04:11:23;;;;;;;7.80;7.03;;;;;;;19.50;100.00;99620.31;5048062;28;20260;-76
2022/07/06 04:13:50;;;;;;;7.33;6.73;;;;;;;19.79;100.00;99607.66;5048337;28;20233;-76
2022/07/06 04:16:17;;;;;;;6.93;6.33;;;;;;;20.17;100.00;99616.94;5046515;28;20233;-76
2022/07/06 04:18:44;;;;;;;6.00;5.60;;;;;;;20.37;100.00;99614.13;5044864;28;20241;-76
2022/07/06 04:21:10;;;;;;;6.30;5.70;;;;;;;20.53;100.00;99617.53;5043769;28;20692;-76
2022/07/06 04:23:37;;;;;;;6.27;5.77;;;;;;;20.65;100.00;99615.25;5042004;28;20704;-76
2022/07/06 04:26:06;;;;;;;5.80;5.40;;;;;;;20.74;100.00;99613.53;5051566;28;20229;-77
2022/07/06 04:28:35;;;;;;;6.50;5.90;;;;;;;21.20;100.00;99618.53;5044292;28;20279;-75
2022/07/06 04:31:02;;;;;;;5.90;5.50;;;;;;;21.66;100.00;99701.41;5042419;28;20311;-76
2022/07/06 04:33:29;;;;;;;6.30;5.80;;;;;;;22.30;100.00;99752.72;5056967;28;20232;-77
2022/07/06 04:35:57;;;;;;;6.77;5.73;;;;;;;23.23;100.00;99716.34;5053073;28;20233;-76
2022/07/06 04:38:31;;;;;;;5.83;5.37;;;;;;;23.79;100.00;99640.63;5071145;28;20585;-76
2022/07/06 04:41:02;;;;;;;6.00;5.50;;;;;;;23.67;100.00;99630.19;5050309;28;20233;-77
2022/07/06 04:43:29;;;;;;;5.50;5.10;;;;;;;22.98;100.00;99625.81;5063679;28;20238;-76
2022/07/06 04:45:56;;;;;;;6.33;5.63;;;;;;;22.54;100.00;99637.16;5053842;28;20228;-77
2022/07/06 04:48:23;;;;;;;5.33;4.93;;;;;;;22.22;100.00;99629.75;5063457;28;20242;-76
2022/07/06 04:50:50;;;;;;;6.10;4.97;;;;;;;21.97;100.00;99633.69;5053962;28;20283;-76
2022/07/06 04:53:23;;;;;;;5.10;4.70;;;;;;;21.76;100.00;99635.84;5053101;28;20324;-76
2022/07/06 04:55:50;;;;;;;7.23;5.00;;;;;;;21.47;100.00;99627.75;5057697;28;20279;-76
2022/07/06 04:58:17;;;;;;;5.23;4.80;;;;;;;21.34;100.00;99639.34;5056008;28;20236;-76
2022/07/06 05:00:45;;;;;;;5.33;4.93;;;;;;;21.22;100.00;99641.69;5055432;28;20331;-77
2022/07/06 05:03:11;;;;;;;5.40;4.90;;;;;;;21.12;100.00;99636.31;5048542;28;20650;-76
2022/07/06 05:05:38;;;;;;;5.37;4.97;;;;;;;20.98;100.00;99638.91;5080112;28;20228;-76
2022/07/06 05:08:05;;;;;;;5.27;4.80;;;;;;;20.92;100.00;99639.22;5053302;28;20610;-78
2022/07/06 05:10:33;;;;;;;4.70;4.33;;;;;;;20.85;100.00;99636.84;5054000;28;20233;-76
2022/07/06 05:12:59;;;;;;;5.10;4.60;;;;;;;20.72;100.00;99644.88;5050628;28;20319;-76
2022/07/06 05:15:27;;;;;;;5.73;5.33;;;;;;;20.78;100.00;99649.16;5052278;28;20256;-78
2022/07/06 05:17:54;;;;;;;5.17;4.77;;;;;;;20.76;100.00;99637.75;5049291;28;20291;-78
2022/07/06 05:20:20;;;;;;;5.23;4.83;;;;;;;20.79;100.00;99646.16;5047996;28;20235;-76
2022/07/06 05:22:48;;;;;;;5.47;5.03;;;;;;;20.97;100.00;99641.88;5055275;28;20225;-76
2022/07/06 05:25:18;;;;;;;5.30;4.90;;;;;;;21.10;100.00;99643.94;5051575;28;20282;-77
2022/07/06 05:27:45;;;;;;;5.17;4.77;;;;;;;21.27;100.00;99652.53;5053552;28;20268;-77
2022/07/06 05:30:12;;;;;;;7.17;5.00;;;;;;;21.45;100.00;99657.22;5046214;28;20273;-76
2022/07/06 05:32:39;;;;;;;5.10;4.70;;;;;;;21.59;100.00;99651.88;5053593;28;20275;-77
2022/07/06 05:35:07;;;;;;;4.90;4.45;;;;;;;21.75;100.00;99655.22;5060643;28;20733;-77
2022/07/06 05:37:54;;;;;;;5.07;4.63;;;;;;;21.88;100.00;99658.03;5062182;28;20226;-79
2022/07/06 05:40:21;;;;;;;5.00;4.70;;;;;;;21.81;100.00;99657.59;5061267;28;20240;-78
2022/07/06 05:42:48;;;;;;;4.97;4.57;;;;;;;21.92;100.00;99656.38;5049487;28;20229;-77
2022/07/06 05:45:14;;;;;;;4.50;4.20;;;;;;;22.03;100.00;99658.97;5049394;28;20229;-78
2022/07/06 05:50:30;;;;;;;4.47;4.20;;;;;;;22.30;100.00;99657.19;5049211;28;20220;-77
2022/07/06 05:53:03;;;;;;;4.28;4.00;;;;;;;22.46;100.00;99652.31;5051361;28;20233;-77
2022/07/06 05:55:44;;;;;;;4.45;4.15;;;;;;;22.60;100.00;99650.47;5044113;28;20623;-77
2022/07/06 05:58:11;;;;;;;4.50;4.20;;;;;;;22.66;100.00;99648.47;5044175;28;20281;-77
2022/07/06 06:00:40;;;;;;;6.00;3.88;;;;;;;22.81;100.00;99648.25;5064067;28;20327;-77
2022/07/06 06:03:12;;;;;;;6.00;4.07;;;;;;;22.98;100.00;99644.94;5054303;28;20248;-78
2022/07/06 06:05:40;;;;;;;4.10;3.72;;;;;;;23.07;97.82;99651.31;5055167;28;20324;-77
2022/07/06 06:08:09;;;;;;;4.18;3.88;;;;;;;23.10;100.00;99647.97;5078512;28;20748;-79
2022/07/06 06:10:35;;;;;;;4.72;4.13;;;;;;;23.11;100.00;99657.78;5043618;28;20237;-77
2022/07/06 06:13:06;;;;;;;4.60;4.30;;;;;;;23.11;100.00;99655.06;5052139;28;20743;-77
2022/07/06 06:15:33;;;;;;;4.30;3.95;;;;;;;23.24;100.00;99657.00;5056757;28;20231;-77
2022/07/06 06:18:01;;;;;;;4.32;4.13;;;;;;;23.16;100.00;99654.97;5050767;28;20245;-78
2022/07/06 06:20:28;;;;;;;4.97;4.28;;;;;;;23.25;100.00;99655.91;5053509;28;20218;-78
2022/07/06 06:22:57;;;;;;;4.70;4.30;;;;;;;23.44;100.00;99650.34;5053897;28;20237;-77
2022/07/06 06:25:34;;;;;;;4.30;3.90;;;;;;;23.40;100.00;99654.78;5059833;28;20601;-78
2022/07/06 06:28:06;;;;;;;3.80;3.60;;;;;;;23.31;100.00;99648.41;5055748;28;20626;-76
2022/07/06 06:30:33;;;;;;;3.60;3.40;;;;;;;23.57;98.02;99652.28;5057909;28;20231;-77
2022/07/06 06:33:14;;;;;;;3.95;3.58;;;;;;;23.67;92.05;99646.63;5048966;28;20325;-76
2022/07/06 06:35:49;;;;;;;3.85;3.55;;;;;;;23.85;91.25;99653.88;5049781;28;20241;-77
2022/07/06 06:38:16;;;;;;;4.65;3.78;;;;;;;23.83;99.26;99647.13;5052997;28;20656;-76
2022/07/06 06:40:43;;;;;;;3.97;3.67;;;;;;;23.91;96.83;99649.94;5052245;28;20575;-78
2022/07/06 06:43:09;;;;;;;3.85;3.50;;;;;;;24.09;92.13;99653.63;5049370;28;20230;-77
2022/07/06 06:45:51;;;;;;;3.92;3.65;;;;;;;24.28;88.18;99659.81;5075311;28;20303;-77
2022/07/06 06:48:18;;;;;;;3.83;3.60;;;;;;;24.42;84.14;99659.75;5059183;28;20242;-78
2022/07/06 06:50:45;;;;;;;3.53;3.25;;;;;;;24.48;84.37;99673.03;5086220;28;20230;-78
2022/07/06 06:53:12;;;;;;;4.35;3.30;;;;;;;24.45;86.23;99670.88;5086568;28;20319;-78
2022/07/06 06:55:39;;;;;;;4.40;3.20;;;;;;;24.53;82.06;99669.34;5079325;28;20338;-77
2022/07/06 06:58:06;;;;;;;3.83;3.53;;;;;;;24.74;79.22;99665.00;5080415;28;20261;-76
2022/07/06 07:00:32;;;;;;;3.25;2.88;;;;;;;24.73;74.38;99665.31;5085754;28;20675;-77
2022/07/06 07:02:59;;;;;;;2.85;2.70;;;;;;;24.88;72.79;99665.75;5079286;28;20671;-76
2022/07/06 07:05:26;;;;;;;3.35;2.60;;;;;;;25.03;69.38;99661.81;5083908;28;20323;-78
2022/07/06 07:07:54;;;;;;;3.30;3.00;;;;;;;25.28;69.57;99663.91;5090535;28;20336;-77
2022/07/06 07:10:29;;;;;;;3.28;2.95;;;;;;;25.34;66.96;99657.13;5088979;28;20255;-77
2022/07/06 07:12:56;;;;;;;3.25;3.00;;;;;;;25.43;68.43;99660.72;5076756;28;20662;-77
2022/07/06 07:15:22;;;;;;;3.25;3.05;;;;;;;25.71;66.10;99657.78;5083855;28;20221;-77
2022/07/06 07:17:49;;;;;;;3.10;2.80;;;;;;;26.09;65.40;99660.75;5082954;28;20322;-77
2022/07/06 07:20:16;;;;;;;3.83;2.70;;;;;;;26.43;60.41;99657.25;5074964;28;20236;-77
2022/07/06 07:22:42;;;;;;;3.20;2.90;;;;;;;26.70;60.78;99654.16;5080665;28;20313;-78
2022/07/06 07:25:09;;;;;;;2.63;2.42;;;;;;;26.78;58.03;99658.84;5079729;28;20308;-77
2022/07/06 07:27:36;;;;;;;2.65;2.45;;;;;;;27.21;54.19;99663.44;5089554;28;20858;-77
2022/07/06 07:30:03;;;;;;;2.53;2.25;;;;;;;27.12;53.15;99663.47;5081695;28;20224;-78
2022/07/06 07:32:30;;;;;;;2.50;2.30;;;;;;;27.26;52.52;99661.31;5088388;28;20224;-78
2022/07/06 07:34:57;;;;;;;2.53;2.08;;;;;;;27.26;49.10;99655.00;5086872;28;20228;-78
2022/07/06 07:37:23;;;;;;;4.47;2.22;;;;;;;26.99;46.52;99658.97;5076276;28;20628;-77
2022/07/06 07:39:50;;;;;;;2.50;2.30;;;;;;;26.83;50.17;99652.38;5083482;28;20636;-77
2022/07/06 07:42:17;;;;;;;2.40;2.30;;;;;;;27.00;51.32;99653.16;5088715;28;20319;-79
2022/07/06 07:44:44;;;;;;;2.42;2.22;;;;;;;27.19;50.19;99654.72;5090992;28;20251;-77
2022/07/06 07:47:11;;;;;;;5.40;2.17;;;;;;;26.97;47.92;99645.56;5084538;28;20229;-77
2022/07/06 07:49:37;;;;;;;3.63;2.28;;;;;;;26.99;50.40;99650.75;5082357;28;20228;-76
2022/07/06 07:52:04;;;;;;;2.50;1.98;;;;;;;27.27;50.88;99648.38;5076151;28;20260;-77
2022/07/06 07:54:31;;;;;;;2.20;2.03;;;;;;;27.32;49.25;99645.44;5088344;28;20672;-77
2022/07/06 07:56:58;;;;;;;3.35;2.25;;;;;;;27.17;50.26;99660.53;5079098;28;20736;-77
2022/07/06 07:59:24;;;;;;;3.67;2.20;;;;;;;26.96;51.15;99654.16;5086410;28;20247;-78
2022/07/06 08:01:51;;;;;;;2.80;2.30;;;;;;;26.56;52.53;99643.34;5078347;28;20867;-77
2022/07/06 08:04:18;;;;;;;2.40;2.20;;;;;;;26.01;54.68;99640.41;5083057;28;20323;-77
2022/07/06 08:06:45;;;;;;;3.45;2.20;;;;;;;26.10;53.46;99643.97;5082988;28;20227;-76
2022/07/06 08:09:12;;;;;;;2.10;2.00;;;;;;;26.17;55.39;99640.75;5091821;28;20232;-77
2022/07/06 08:11:38;;;;;;;3.45;2.45;;;;;;;26.10;54.85;99643.97;5089165;28;20244;-78
2022/07/06 08:14:05;;;;;;;2.60;2.25;;;;;;;26.41;53.75;99640.31;5085887;28;20334;-78
2022/07/06 08:16:32;;;;;;;2.10;2.00;;;;;;;26.60;49.85;99644.31;5091977;28;20229;-78
2022/07/06 08:18:58;;;;;;;2.20;2.05;;;;;;;26.85;48.60;99645.41;5088226;28;20230;-77
2022/07/06 08:21:25;;;;;;;2.35;1.95;;;;;;;27.06;48.32;99651.84;5083208;28;20289;-77
2022/07/06 08:23:54;;;;;;;2.95;2.10;;;;;;;27.15;48.08;99651.84;5093485;28;20735;-77
2022/07/06 08:26:21;;;;;;;2.85;2.20;;;;;;;27.27;48.17;99643.69;5071381;28;20251;-77
2022/07/06 08:28:48;;;;;;;2.33;2.22;;;;;;;27.01;50.58;99651.22;5088171;28;20237;-77
2022/07/06 08:31:14;;;;;;;3.17;2.33;;;;;;;26.48;53.46;99646.09;5090225;28;20282;-77
2022/07/06 08:34:02;;;;;;;3.83;2.40;;;;;;;26.16;54.35;99636.38;5090450;28;20266;-78
2022/07/06 08:36:29;;;;;;;2.50;2.30;;;;;;;26.10;54.92;99635.72;5095458;28;20319;-77
2022/07/06 08:38:56;;;;;;;2.60;2.40;;;;;;;26.19;54.66;99639.28;5097041;28;20231;-77
2022/07/06 08:41:24;;;;;;;3.00;2.50;;;;;;;26.31;51.36;99638.69;5093290;28;20315;-77
2022/07/06 08:43:54;;;;;;;2.72;2.17;;;;;;;26.40;49.30;99633.19;5100248;28;20291;-77
2022/07/06 08:46:21;;;;;;;3.17;2.00;;;;;;;26.60;48.82;99638.00;5091613;28;20240;-78
2022/07/06 08:48:49;;;;;;;3.42;2.28;;;;;;;26.68;47.17;99635.25;5077807;28;20255;-79
2022/07/06 08:51:17;;;;;;;2.50;2.30;;;;;;;26.88;46.21;99630.22;5076624;28;20235;-78
2022/07/06 08:53:45;;;;;;;2.22;2.10;;;;;;;26.86;47.77;99641.56;5095592;28;20569;-78
2022/07/06 08:56:12;;;;;;;2.47;2.28;;;;;;;26.91;48.47;99635.09;5076304;28;20318;-77
2022/07/06 08:58:41;;;;;;;2.50;2.30;;;;;;;26.94;49.20;99637.16;5095610;28;20753;-78
2022/07/06 09:01:11;;;;;;;3.75;2.60;;;;;;;27.08;49.57;99643.28;5094376;28;20227;-77
2022/07/06 09:03:40;;;;;;;2.38;2.22;;;;;;;27.13;47.50;99634.84;5088674;28;20221;-78
2022/07/06 09:06:07;;;;;;;2.53;2.28;;;;;;;27.05;47.77;99638.44;5078073;28;20234;-77
2022/07/06 09:08:36;;;;;;;2.22;2.10;;;;;;;26.86;47.70;99644.31;5076370;28;20758;-77
2022/07/06 09:11:03;;;;;;;2.47;2.28;;;;;;;27.13;49.72;99640.34;5083324;28;20228;-77
2022/07/06 09:13:30;;;;;;;2.65;2.45;;;;;;;27.16;48.02;99634.97;5091075;28;20248;-80
2022/07/06 09:16:09;;;;;;;2.17;2.08;;;;;;;27.52;48.52;99622.75;5095047;28;20746;-77
2022/07/06 09:18:56;;;;;;;2.63;2.42;;;;;;;27.47;44.83;99626.47;5086921;28;20278;-77
2022/07/06 09:21:30;;;;;;;2.95;2.20;;;;;;;27.38;45.82;99625.69;5093839;28;20661;-77
2022/07/06 09:23:58;;;;;;;2.42;2.33;;;;;;;27.48;46.32;99630.03;5096652;28;20242;-77
2022/07/06 09:26:25;;;;;;;2.60;2.40;;;;;;;27.45;46.50;99625.16;5086724;28;20308;-78
2022/07/06 09:28:54;;;;;;;2.67;2.47;;;;;;;27.65;45.39;99638.22;5094634;28;20288;-77
2022/07/06 09:31:21;;;;;;;2.88;2.33;;;;;;;27.66;45.14;99626.06;5091929;28;20315;-78
2022/07/06 09:34:05;;;;;;;2.50;2.30;;;;;;;27.82;44.66;99642.78;5070175;28;20251;-77
2022/07/06 09:36:42;;;;;;;3.08;2.35;;;;;;;27.90;44.80;99634.47;5091114;28;20231;-78
2022/07/06 09:39:22;;;;;;;2.83;2.47;;;;;;;28.36;43.93;99621.69;5097851;28;20716;-78
2022/07/06 09:42:00;;;;;;;2.20;2.10;;;;;;;28.61;42.97;99628.09;5082380;28;20275;-77
2022/07/06 09:44:32;;;;;;;2.85;2.42;;;;;;;28.72;40.05;99612.78;5097183;28;20255;-78
2022/07/06 09:47:01;;;;;;;2.30;2.10;;;;;;;28.43;41.27;99608.97;5095380;28;20228;-78
2022/07/06 09:49:28;;;;;;;2.50;2.40;;;;;;;28.19;42.88;99619.06;5090678;28;20235;-78
2022/07/06 09:52:00;;;;;;;2.15;2.05;;;;;;;28.05;42.83;99611.03;5098168;28;20274;-77
2022/07/06 09:54:27;;;;;;;2.88;2.60;;;;;;;27.50;45.25;99612.06;5077352;28;20236;-77
2022/07/06 09:56:55;;;;;;;2.80;2.60;;;;;;;27.73;47.14;99626.34;5090807;28;20501;-77
2022/07/06 09:59:23;;;;;;;5.07;2.60;;;;;;;27.82;48.02;99621.56;5092477;28;20220;-78
2022/07/06 10:01:52;;;;;;;3.20;2.70;;;;;;;28.02;47.49;99612.53;5090544;28;20233;-78
2022/07/06 10:04:20;;;;;;;3.95;2.65;;;;;;;28.37;47.99;99607.56;5074485;28;20311;-77
2022/07/06 10:06:48;;;;;;;3.38;2.67;;;;;;;28.28;47.80;99611.53;5095396;28;20286;-77
2022/07/06 10:09:15;;;;;;;3.08;2.70;;;;;;;28.00;47.22;99612.06;5089081;28;20255;-78
2022/07/06 10:11:53;;;;;;;3.38;2.72;;;;;;;28.06;48.00;99601.66;5052346;28;20250;-77
2022/07/06 10:14:22;;;;;;;3.10;2.50;;;;;;;27.96;49.22;99619.38;5092194;28;20319;-78
2022/07/06 10:16:49;;;;;;;2.78;2.50;;;;;;;27.85;48.74;99620.13;5077988;28;20228;-77
2022/07/06 10:19:19;;;;;;;2.83;2.50;;;;;;;28.00;48.54;99614.00;5091358;28;20627;-78
2022/07/06 10:21:46;;;;;;;3.33;2.60;;;;;;;28.18;48.17;99618.28;5089883;28;20319;-78
2022/07/06 10:24:14;;;;;;;3.67;2.70;;;;;;;28.45;47.55;99612.22;5073009;28;20224;-77
2022/07/06 10:26:42;;;;;;;3.42;2.90;;;;;;;28.40;46.18;99606.09;5090517;28;20688;-78
2022/07/06 10:29:08;;;;;;;2.58;2.38;;;;;;;28.63;46.60;99604.56;5085380;28;20239;-79
2022/07/06 10:31:38;;;;;;;5.40;2.70;;;;;;;28.31;47.53;99611.69;5096936;28;20267;-78
2022/07/06 10:34:07;;;;;;;2.58;2.47;;;;;;;28.22;47.22;99602.69;5095310;28;20243;-77
2022/07/06 10:36:38;;;;;;;2.78;2.55;;;;;;;28.14;46.41;99611.00;5072616;28;20229;-77
2022/07/06 10:41:52;;;;;;;2.55;2.45;;;;;;;27.68;48.18;99615.50;5079830;28;20225;-78
2022/07/06 10:44:23;;;;;;;2.90;2.70;;;;;;;27.67;48.58;99630.41;5091433;28;20231;-77
2022/07/06 10:46:55;;;;;;;2.80;2.60;;;;;;;27.38;50.55;99622.13;5075119;28;20324;-77
2022/07/06 10:49:23;;;;;;;3.00;2.80;;;;;;;26.96;51.29;99645.91;5089751;28;20699;-77
2022/07/06 10:52:09;;;;;;;3.25;2.80;;;;;;;26.21;55.30;99648.06;5092039;28;20307;-77
2022/07/06 10:54:39;;;;;;;4.45;2.63;;;;;;;25.98;56.54;99656.72;5085720;28;20267;-78
2022/07/06 10:57:10;;;;;;;3.75;2.72;;;;;;;25.57;57.48;99663.38;5088249;28;20244;-76
2022/07/06 10:59:37;;;;;;;3.40;3.10;;;;;;;25.40;62.23;99677.81;5079714;28;20718;-77
2022/07/06 11:02:16;;;;;;;5.47;3.40;;;;;;;24.82;73.88;99701.81;5093502;28;20315;-76
2022/07/06 11:04:45;;;;;;;3.53;3.20;;;;;;;24.21;79.41;99718.84;5093644;28;20274;-76
2022/07/06 11:07:16;;;;;;;6.43;3.20;;;;;;;23.39;89.36;99733.25;5094872;28;20307;-76
2022/07/06 11:09:55;;;;;;;4.35;3.65;;;;;;;22.53;100.00;99742.06;5091899;28;20774;-77
2022/07/06 11:12:22;;;;;;;4.03;3.40;;;;;;;21.64;100.00;99749.97;5094879;28;20823;-76
2022/07/06 11:14:50;;;;;;;3.20;2.90;;;;;;;20.86;100.00;99746.56;5094103;28;20232;-76
2022/07/06 11:17:17;;;;;;;3.27;3.07;;;;;;;20.33;100.00;99751.81;5094987;28;20260;-77
2022/07/06 11:19:55;;;;;;;3.10;2.90;;;;;;;19.94;100.00;99768.00;5085723;28;20227;-77
2022/07/06 11:22:24;;;;;;;3.17;2.70;;;;;;;19.71;100.00;99765.91;5090323;28;20242;-76
2022/07/06 11:24:55;;;;;;;3.90;2.83;;;;;;;19.52;100.00;99775.72;5084849;28;20268;-76
2022/07/06 11:27:23;;;;;;;2.77;2.57;;;;;;;19.31;100.00;99769.50;5084783;28;20241;-75
2022/07/06 11:29:49;;;;;;;2.77;2.57;;;;;;;19.33;100.00;99770.00;5090558;28;20245;-76
2022/07/06 11:32:23;;;;;;;2.40;2.20;;;;;;;19.28;100.00;99751.00;5086214;28;20361;-76
2022/07/06 11:34:50;;;;;;;3.57;2.63;;;;;;;19.60;100.00;99775.97;5088716;28;20216;-76
2022/07/06 11:37:20;;;;;;;2.60;2.40;;;;;;;20.07;100.00;99788.34;5080758;28;20319;-75
2022/07/06 11:39:48;;;;;;;3.43;2.70;;;;;;;20.48;100.00;99778.13;5090242;28;20268;-79
2022/07/06 11:42:16;;;;;;;4.23;2.70;;;;;;;21.15;100.00;99760.25;5062940;28;20761;-77